METAR AND TAF INFORMATION
METAR FOR PFSH
ADDS - METARS form results

(0359 UTC 06 April 2020)
Data provider http://aviationweather.gov/metar/data/
 
METAR text: PFSH 060356Z AUTO 25019G25KT 1/4SM -SN FZFG FEW005 SCT010 OVC014 M12/M13 A2953 RMK AO2 PK WND 23027/0308 SLP000 T11171133 FZRANO PNO $
Conditions at: PFSH (SHAKTOOLIK , AK, US) observed 0356 UTC 06 April 2020
Temperature: -11.7°C (11°F)
Dewpoint: -13.3°C ( 8°F) [RH = 88%]
Pressure (altimeter): 29.53 inches Hg (1000.1 mb)
[Sea-level pressure: 1000.0 mb]
Winds: from the WSW (250 degrees) at 22 MPH (19 knots; 9.8 m/s)
gusting to 29 MPH (25 knots; 12.9 m/s)
Visibility: 0.25 miles (0.40 km)
Ceiling: 1400 feet AGL
Clouds: few clouds at 500 feet AGL
scattered clouds at 1000 feet AGL
overcast cloud deck at 1400 feet AGL
Weather: -SN FZFG  (light snow, freezing fog)
SOME DATA ABOVE MAY BE INACCURATE!!!
"$" is an indication the sensor requires maintenance

METAR text: PFSH 060347Z AUTO 25020KT 1/2SM -SN FZFG FEW005 BKN013 OVC019 M11/M13 A2953 RMK AO2 PK WND 23027/0308 FZRANO PNO $
Conditions at: PFSH (SHAKTOOLIK , AK, US) observed 0347 UTC 06 April 2020
Temperature: -11.0°C (12°F)
Dewpoint: -13.0°C ( 9°F) [RH = 85%]
Pressure (altimeter): 29.53 inches Hg (1000.1 mb)
Winds: from the WSW (250 degrees) at 23 MPH (20 knots; 10.3 m/s)
Visibility: 0.50 miles (0.80 km)
Ceiling: 1300 feet AGL
Clouds: few clouds at 500 feet AGL
broken clouds at 1300 feet AGL
overcast cloud deck at 1900 feet AGL
Weather: -SN FZFG  (light snow, freezing fog)
SOME DATA ABOVE MAY BE INACCURATE!!!
"$" is an indication the sensor requires maintenance

METAR text: PFSH 060343Z AUTO 23017KT 1SM -SN BR BKN013 OVC019 M12/M13 A2953 RMK AO2 PK WND 23027/0308 FZRANO PNO $
Conditions at: PFSH (SHAKTOOLIK , AK, US) observed 0343 UTC 06 April 2020
Temperature: -12.0°C (10°F)
Dewpoint: -13.0°C ( 9°F) [RH = 92%]
Pressure (altimeter): 29.53 inches Hg (1000.1 mb)
Winds: from the SW (230 degrees) at 20 MPH (17 knots; 8.7 m/s)
Visibility: 1.00 miles (1.61 km)
Ceiling: 1300 feet AGL
Clouds: broken clouds at 1300 feet AGL
overcast cloud deck at 1900 feet AGL
Weather: -SN BR  (light snow, mist)
SOME DATA ABOVE MAY BE INACCURATE!!!
"$" is an indication the sensor requires maintenance

METAR text: PFSH 060335Z AUTO 23023KT 1 1/2SM -SN BR BKN015 BKN022 OVC060 M11/M13 A2952 RMK AO2 PK WND 23027/0308 FZRANO PNO $
Conditions at: PFSH (SHAKTOOLIK , AK, US) observed 0335 UTC 06 April 2020
Temperature: -11.0°C (12°F)
Dewpoint: -13.0°C ( 9°F) [RH = 85%]
Pressure (altimeter): 29.52 inches Hg (999.7 mb)
Winds: from the SW (230 degrees) at 26 MPH (23 knots; 11.8 m/s)
Visibility: 1.50 miles (2.41 km)
Ceiling: 1500 feet AGL
Clouds: broken clouds at 1500 feet AGL
broken clouds at 2200 feet AGL
overcast cloud deck at 6000 feet AGL
Weather: -SN BR  (light snow, mist)
SOME DATA ABOVE MAY BE INACCURATE!!!
"$" is an indication the sensor requires maintenance

METAR text: PFSH 060328Z AUTO 23022KT 2SM -SN BR BKN015 OVC060 M11/M13 A2952 RMK AO2 PK WND 23027/0308 FZRANO PNO $
Conditions at: PFSH (SHAKTOOLIK , AK, US) observed 0328 UTC 06 April 2020
Temperature: -11.0°C (12°F)
Dewpoint: -13.0°C ( 9°F) [RH = 85%]
Pressure (altimeter): 29.52 inches Hg (999.7 mb)
Winds: from the SW (230 degrees) at 25 MPH (22 knots; 11.3 m/s)
Visibility: 2.00 miles (3.22 km)
Ceiling: 1500 feet AGL
Clouds: broken clouds at 1500 feet AGL
overcast cloud deck at 6000 feet AGL
Weather: -SN BR  (light snow, mist)
SOME DATA ABOVE MAY BE INACCURATE!!!
"$" is an indication the sensor requires maintenance

METAR text: PFSH 060310Z AUTO 23022KT 3SM BR FEW016 SCT044 OVC060 M11/M13 A2951 RMK AO2 PK WND 23027/0308 SNE10 FZRANO PNO $
Conditions at: PFSH (SHAKTOOLIK , AK, US) observed 0310 UTC 06 April 2020
Temperature: -11.0°C (12°F)
Dewpoint: -13.0°C ( 9°F) [RH = 85%]
Pressure (altimeter): 29.51 inches Hg (999.4 mb)
Winds: from the SW (230 degrees) at 25 MPH (22 knots; 11.3 m/s)
Visibility: 3 miles ( 5 km)
Ceiling: 6000 feet AGL
Clouds: few clouds at 1600 feet AGL
scattered clouds at 4400 feet AGL
overcast cloud deck at 6000 feet AGL
Weather: BR  (mist)
SOME DATA ABOVE MAY BE INACCURATE!!!
"$" is an indication the sensor requires maintenance

 AIRPORT MAP

 RUNWAY INFORMATION
Runway 14 Runway length 4001 ft Runway width 75 ft
Runway elevation 19 ft Runway displaced threshold 0 ft Runway heading 0
Runway 32 Runway length 4001 ft Runway width 75 ft
Runway elevation 24 ft Runway displaced threshold 0 ft Runway heading 0

 AIRPORT FREQUENCIES

 AIRPORT NEAR NAVIGATION AIDS



We are a FlightSim virtual group and are in no way affiliated with RavnAir Group.

Powered by Virtual Airlines Manager [v2.6.2]